createdAt,value
2023-04-29T00:03:58.857Z,97366.22
2023-04-29T00:12:15.741Z,97357.47
2023-04-29T00:16:18.732Z,97351.28
2023-04-29T00:20:24.128Z,97348.28
2023-04-29T00:24:27.745Z,97339.97
2023-04-29T00:28:31.970Z,97338.66
2023-04-29T00:32:35.596Z,97343.63
2023-04-29T00:36:42.229Z,97326.63
2023-04-29T00:40:46.362Z,97333.97
2023-04-29T00:44:49.243Z,97339.69
2023-04-29T00:48:53.054Z,97342.91
2023-04-29T00:52:58.295Z,97341.91
2023-04-29T00:57:02.790Z,97334.06
2023-04-29T01:01:06.565Z,97337.69
2023-04-29T01:05:09.814Z,97337.69
2023-04-29T01:09:28.428Z,97334.06
2023-04-29T01:13:35.795Z,97335.56
2023-04-29T01:17:43.549Z,97330.16
2023-04-29T01:21:50.703Z,97333.38
2023-04-29T01:25:56.291Z,97330.94
2023-04-29T01:30:06.053Z,97331.78
2023-04-29T01:34:12.657Z,97332.13
2023-04-29T01:38:26.622Z,97336.69
2023-04-29T01:42:39.459Z,97334.44
2023-04-29T01:46:45.613Z,97329.59
2023-04-29T01:50:49.548Z,97334.47
2023-04-29T01:54:52.448Z,97339.09
2023-04-29T01:58:57.535Z,97337.47
2023-04-29T02:03:00.899Z,97332.59
2023-04-29T02:07:04.604Z,97332.31
2023-04-29T02:11:07.625Z,97322.22
2023-04-29T02:15:14.140Z,97325.81
2023-04-29T02:19:17.458Z,97334.97
2023-04-29T02:23:21.477Z,97335.16
2023-04-29T02:27:25.077Z,97339.38
2023-04-29T02:31:30.752Z,97333.03
2023-04-29T02:35:34.661Z,97342.13
2023-04-29T02:39:37.626Z,97333.94
2023-04-29T02:43:42.010Z,97339.28
2023-04-29T02:47:47.164Z,97336.44
2023-04-29T02:51:51.044Z,97329.91
2023-04-29T02:55:54.721Z,97334.81
2023-04-29T02:59:58.160Z,97333.81
2023-04-29T03:04:03.603Z,97331.50
2023-04-29T03:08:06.656Z,97323.41
2023-04-29T03:12:10.441Z,97324.44
2023-04-29T03:16:15.351Z,97340.09
2023-04-29T03:20:21.142Z,97333.72
2023-04-29T03:24:24.085Z,97327.97
2023-04-29T03:28:28.321Z,97320.59
2023-04-29T03:32:31.461Z,97328.78
2023-04-29T03:36:38.302Z,97327.81
2023-04-29T03:40:41.848Z,97324.88
2023-04-29T03:44:45.216Z,97315.78
2023-04-29T03:48:48.386Z,97317.59
2023-04-29T03:52:53.743Z,97312.00
2023-04-29T03:56:57.327Z,97321.31
2023-04-29T04:01:00.311Z,97320.16
2023-04-29T04:05:04.124Z,97323.03
2023-04-29T04:09:09.483Z,97311.94
2023-04-29T04:13:12.943Z,97314.16
2023-04-29T04:17:16.281Z,97319.94
2023-04-29T04:21:19.785Z,97337.13
2023-04-29T04:25:24.258Z,97338.88
2023-04-29T04:29:27.972Z,97337.16
2023-04-29T04:33:30.854Z,97336.00
2023-04-29T04:37:34.970Z,97331.69
2023-04-29T04:41:40.169Z,97328.19
2023-04-29T04:45:43.549Z,97327.47
2023-04-29T04:49:47.210Z,97320.53
2023-04-29T04:53:51.155Z,97333.78
2023-04-29T04:57:55.878Z,97323.06
2023-04-29T05:02:00.736Z,97321.97
2023-04-29T05:06:05.030Z,97325.13
2023-04-29T05:10:10.220Z,97329.66
2023-04-29T05:14:15.406Z,97328.81
2023-04-29T05:18:19.256Z,97334.28
2023-04-29T05:22:22.624Z,97324.59
2023-04-29T05:26:26.085Z,97331.03
2023-04-29T05:30:31.044Z,97328.53
2023-04-29T05:34:34.785Z,97341.00
2023-04-29T05:38:38.364Z,97356.28
2023-04-29T05:42:42.449Z,97351.78
2023-04-29T05:46:48.963Z,97349.00
2023-04-29T05:50:52.690Z,97360.78
2023-04-29T05:54:55.925Z,97358.63
2023-04-29T05:58:59.742Z,97358.09
2023-04-29T06:03:04.894Z,97365.66
2023-04-29T06:07:10.255Z,97362.72
2023-04-29T06:11:13.142Z,97361.19
2023-04-29T06:15:16.915Z,97366.09
2023-04-29T06:19:22.624Z,97370.00
2023-04-29T06:23:25.777Z,97379.56
2023-04-29T06:27:29.979Z,97384.47
2023-04-29T06:31:33.183Z,97381.25
2023-04-29T06:35:41.536Z,97383.09
2023-04-29T06:39:44.482Z,97386.19
2023-04-29T06:43:48.991Z,97392.44
2023-04-29T06:47:52.526Z,97399.72
2023-04-29T06:51:57.300Z,97394.25
2023-04-29T06:56:00.214Z,97395.06
2023-04-29T07:00:04.406Z,97393.84
2023-04-29T07:04:07.769Z,97396.03
2023-04-29T07:08:14.707Z,97392.78
2023-04-29T07:12:17.644Z,97394.56
2023-04-29T07:16:27.152Z,97399.75
2023-04-29T07:20:30.329Z,97394.97
2023-04-29T07:24:35.283Z,97397.91
2023-04-29T07:28:39.334Z,97399.22
2023-04-29T07:32:46.762Z,97399.13
2023-04-29T07:36:49.924Z,97410.22
2023-04-29T07:40:55.252Z,97407.38
2023-04-29T07:44:58.976Z,97407.75
2023-04-29T07:49:02.404Z,97409.94
2023-04-29T07:53:05.649Z,97415.63
2023-04-29T07:57:11.094Z,97424.28
2023-04-29T08:01:15.666Z,97428.63
2023-04-29T08:05:20.335Z,97419.78
2023-04-29T08:09:23.686Z,97423.59
2023-04-29T08:13:28.887Z,97421.94
2023-04-29T08:17:32.010Z,97428.19
2023-04-29T08:21:35.625Z,97426.72
2023-04-29T08:25:46.578Z,97429.41
2023-04-29T08:29:52.231Z,97438.28
2023-04-29T08:33:55.230Z,97439.44
2023-04-29T08:37:58.617Z,97438.00
2023-04-29T08:42:02.050Z,97446.50
2023-04-29T08:46:08.430Z,97442.47
2023-04-29T08:50:15.308Z,97444.00
2023-04-29T08:54:19.912Z,97438.91
2023-04-29T08:58:26.758Z,97442.69
2023-04-29T09:02:32.030Z,97444.63
2023-04-29T09:06:36.104Z,97444.06
2023-04-29T09:10:41.503Z,97439.06
2023-04-29T09:14:44.903Z,97448.59
2023-04-29T09:18:52.296Z,97440.31
2023-04-29T09:22:57.010Z,97439.22
2023-04-29T09:27:00.921Z,97435.03
2023-04-29T09:31:06.848Z,97433.00
2023-04-29T09:35:28.913Z,97420.47
2023-04-29T09:39:42.689Z,97421.66
2023-04-29T09:43:48.643Z,97430.78
2023-04-29T09:48:03.864Z,97429.66
2023-04-29T09:52:10.140Z,97438.63
2023-04-29T09:56:13.723Z,97435.97
2023-04-29T10:00:19.020Z,97432.44
2023-04-29T10:04:24.585Z,97433.56
2023-04-29T10:08:31.566Z,97438.47
2023-04-29T10:12:36.550Z,97433.84
2023-04-29T10:16:47.102Z,97429.88
2023-04-29T10:20:50.807Z,97418.34
2023-04-29T10:24:59.696Z,97416.19
2023-04-29T10:29:04.216Z,97417.13
2023-04-29T10:33:10.120Z,97412.59
2023-04-29T10:37:14.229Z,97413.03
2023-04-29T10:41:25.223Z,97414.56
2023-04-29T10:45:32.242Z,97407.78
2023-04-29T10:49:36.838Z,97405.25
2023-04-29T10:54:02.035Z,97405.25
2023-04-29T10:58:08.730Z,97394.13
2023-04-29T11:02:16.088Z,97393.41
2023-04-29T11:06:20.671Z,97382.13
2023-04-29T11:10:39.382Z,97375.94
2023-04-29T11:14:51.675Z,97367.69
2023-04-29T11:19:09.025Z,97363.06
2023-04-29T11:23:12.842Z,97362.22
2023-04-29T11:27:17.082Z,97360.72
2023-04-29T11:31:25.818Z,97360.34
2023-04-29T11:35:29.995Z,97359.03
2023-04-29T11:39:37.002Z,97356.78
2023-04-29T11:43:40.720Z,97348.91
2023-04-29T11:47:47.299Z,97345.03
2023-04-29T11:51:50.358Z,97353.03
2023-04-29T11:55:54.974Z,97353.34
2023-04-29T11:59:58.988Z,97343.44
2023-04-29T12:04:05.604Z,97359.34
2023-04-29T12:08:09.098Z,97357.13
2023-04-29T12:12:24.413Z,97339.16
2023-04-29T12:16:38.996Z,97308.91
2023-04-29T12:20:56.392Z,97276.53
2023-04-29T12:25:21.190Z,97321.97
2023-04-29T12:29:42.284Z,97323.50
2023-04-29T12:34:17.091Z,97263.78
2023-04-29T12:38:27.334Z,97294.97
2023-04-29T12:42:33.791Z,97312.63
2023-04-29T12:46:38.094Z,97271.00
2023-04-29T12:50:41.192Z,97295.00
2023-04-29T12:54:49.903Z,97273.09
2023-04-29T12:58:53.529Z,97286.47
2023-04-29T13:02:57.081Z,97307.09
2023-04-29T13:07:01.193Z,97284.34
2023-04-29T13:11:06.285Z,97296.84
2023-04-29T13:15:11.690Z,97306.31
2023-04-29T13:19:28.282Z,97251.97
2023-04-29T13:23:37.585Z,97286.41
2023-04-29T13:27:44.153Z,97304.59
2023-04-29T13:32:03.806Z,97269.31
2023-04-29T13:36:13.891Z,97264.72
2023-04-29T13:40:20.430Z,97267.84
2023-04-29T13:44:34.348Z,97258.16
2023-04-29T13:53:30.378Z,97222.53
2023-04-29T14:02:23.486Z,97281.47
2023-04-29T14:06:19.188Z,97272.25
2023-04-29T14:10:22.787Z,97277.66
2023-04-29T14:14:37.851Z,97252.63
2023-04-29T14:18:42.875Z,97269.72
2023-04-29T14:23:00.035Z,97227.22
2023-04-29T14:27:04.232Z,97260.88
2023-04-29T14:31:07.751Z,97273.69
2023-04-29T14:35:13.032Z,97246.47
2023-04-29T14:39:17.098Z,97271.03
2023-04-29T14:43:23.690Z,97247.50
2023-04-29T14:47:27.040Z,97275.53
2023-04-29T14:51:31.860Z,97289.75
2023-04-29T14:55:34.708Z,97286.53
2023-04-29T14:59:37.882Z,97296.97
2023-04-29T15:03:44.169Z,97266.19
2023-04-29T15:07:49.538Z,97286.19
2023-04-29T15:11:52.444Z,97316.34
2023-04-29T15:15:56.011Z,97317.34
2023-04-29T15:19:58.905Z,97281.69
2023-04-29T15:24:04.895Z,97289.88
2023-04-29T15:28:08.008Z,97289.78
2023-04-29T15:32:12.802Z,97326.47
2023-04-29T15:36:16.505Z,97331.72
2023-04-29T15:40:21.187Z,97328.63
2023-04-29T15:44:24.107Z,97331.66
2023-04-29T15:48:27.631Z,97325.25
2023-04-29T15:52:30.569Z,97300.78
2023-04-29T15:56:35.514Z,97285.09
2023-04-29T16:00:39.027Z,97322.34
2023-04-29T16:04:42.564Z,97322.84
2023-04-29T16:08:45.881Z,97342.66
2023-04-29T16:12:51.241Z,97324.44
2023-04-29T16:16:54.311Z,97339.63
2023-04-29T16:20:58.179Z,97340.50
2023-04-29T16:25:01.900Z,97338.47
2023-04-29T16:29:07.521Z,97333.84
2023-04-29T16:33:14.149Z,97363.25
2023-04-29T16:37:18.471Z,97355.22
2023-04-29T16:41:22.862Z,97333.16
2023-04-29T16:45:29.349Z,97333.00
2023-04-29T16:49:35.376Z,97331.72
2023-04-29T16:53:39.106Z,97318.63
2023-04-29T16:57:42.203Z,97340.72
2023-04-29T17:01:59.893Z,97343.47
2023-04-29T17:06:03.291Z,97352.06
2023-04-29T17:10:08.215Z,97391.47
2023-04-29T17:14:11.271Z,97361.34
2023-04-29T17:18:16.565Z,97361.84
2023-04-29T17:22:19.918Z,97416.00
2023-04-29T17:26:23.570Z,97415.16
2023-04-29T17:30:43.464Z,97408.22
2023-04-29T17:39:10.058Z,97448.91
2023-04-29T17:43:13.510Z,97453.88
2023-04-29T17:47:17.437Z,97452.19
2023-04-29T17:51:22.924Z,97452.03
2023-04-29T17:55:26.253Z,97455.72
2023-04-29T17:59:31.189Z,97458.97
2023-04-29T18:03:34.266Z,97462.13
2023-04-29T18:07:39.103Z,97463.06
2023-04-29T18:11:42.538Z,97466.63
2023-04-29T18:15:46.046Z,97469.72
2023-04-29T18:19:50.615Z,97473.16
2023-04-29T18:23:55.074Z,97479.84
2023-04-29T18:28:13.130Z,97493.00
2023-04-29T18:32:22.086Z,97491.78
2023-04-29T18:36:25.185Z,97498.25
2023-04-29T18:40:30.154Z,97504.13
2023-04-29T18:44:34.266Z,97513.63
2023-04-29T18:48:38.981Z,97524.13
2023-04-29T18:52:42.684Z,97524.91
2023-04-29T18:56:49.826Z,97527.13
2023-04-29T19:00:53.172Z,97544.72
2023-04-29T19:04:56.870Z,97546.50
2023-04-29T19:09:00.272Z,97558.34
2023-04-29T19:13:05.354Z,97569.03
2023-04-29T19:17:08.452Z,97570.00
2023-04-29T19:21:12.444Z,97575.03
2023-04-29T19:25:16.235Z,97579.28
2023-04-29T19:29:21.630Z,97577.91
2023-04-29T19:33:24.629Z,97581.75
2023-04-29T19:37:27.940Z,97593.53
2023-04-29T19:41:34.792Z,97603.31
2023-04-29T19:45:40.109Z,97602.75
2023-04-29T19:49:43.557Z,97609.66
2023-04-29T19:53:47.963Z,97604.03
2023-04-29T19:57:52.173Z,97611.13
2023-04-29T20:01:57.564Z,97613.16
2023-04-29T20:06:01.573Z,97613.78
2023-04-29T20:10:05.677Z,97617.22
2023-04-29T20:14:09.419Z,97626.13
2023-04-29T20:18:14.843Z,97623.06
2023-04-29T20:22:17.977Z,97622.03
2023-04-29T20:26:23.341Z,97627.09
2023-04-29T20:30:27.174Z,97632.13
2023-04-29T20:34:32.726Z,97639.78
2023-04-29T20:38:36.322Z,97632.88
2023-04-29T20:42:39.980Z,97634.03
2023-04-29T20:46:44.192Z,97643.09
2023-04-29T20:50:49.522Z,97645.03
2023-04-29T20:54:53.963Z,97651.84
2023-04-29T20:58:58.995Z,97652.78
2023-04-29T21:03:02.454Z,97650.03
2023-04-29T21:07:07.051Z,97652.94
2023-04-29T21:11:10.737Z,97656.03
2023-04-29T21:15:13.987Z,97665.56
2023-04-29T21:19:17.541Z,97666.69
2023-04-29T21:23:24.399Z,97664.16
2023-04-29T21:27:27.463Z,97677.41
2023-04-29T21:31:32.048Z,97673.91
2023-04-29T21:35:35.796Z,97678.34
2023-04-29T21:39:41.473Z,97685.84
2023-04-29T21:43:45.451Z,97687.91
2023-04-29T21:47:49.894Z,97689.78
2023-04-29T21:51:53.068Z,97691.50
2023-04-29T21:55:58.119Z,97694.00
2023-04-29T22:00:01.807Z,97701.31
2023-04-29T22:04:04.689Z,97694.53
2023-04-29T22:08:08.768Z,97683.47
2023-04-29T22:12:13.164Z,97688.94
2023-04-29T22:16:16.540Z,97702.34
2023-04-29T22:20:19.690Z,97709.28
2023-04-29T22:24:23.323Z,97700.84
2023-04-29T22:28:27.860Z,97711.56
2023-04-29T22:32:31.439Z,97707.94
2023-04-29T22:36:36.976Z,97716.06
2023-04-29T22:40:40.485Z,97721.13
2023-04-29T22:44:46.295Z,97719.94
2023-04-29T22:48:49.737Z,97726.22
2023-04-29T22:52:52.936Z,97734.09
2023-04-29T22:56:57.255Z,97733.44
2023-04-29T23:01:02.564Z,97741.50
2023-04-29T23:05:08.169Z,97742.72
2023-04-29T23:09:11.705Z,97744.69
2023-04-29T23:13:15.396Z,97758.00
2023-04-29T23:17:21.472Z,97750.31
2023-04-29T23:21:29.185Z,97747.47
2023-04-29T23:25:32.421Z,97749.81
2023-04-29T23:29:35.939Z,97746.97
2023-04-29T23:33:40.248Z,97750.97
2023-04-29T23:37:43.970Z,97744.84
2023-04-29T23:41:47.284Z,97750.00
2023-04-29T23:45:51.207Z,97754.34
2023-04-29T23:49:55.897Z,97764.78
2023-04-29T23:54:01.435Z,97766.75
2023-04-29T23:58:04.360Z,97784.84
